createdAt,value
2022-09-28T00:01:08.162Z,9.14
2022-09-28T00:06:12.630Z,9.04
2022-09-28T00:11:15.348Z,9.03
2022-09-28T00:16:19.572Z,8.98
2022-09-28T00:21:26.799Z,9.06
2022-09-28T00:26:29.980Z,9.06
2022-09-28T00:31:33.351Z,9.09
2022-09-28T00:36:34.944Z,9.08
2022-09-28T00:41:36.210Z,9.10
2022-09-28T00:46:37.543Z,9.10
2022-09-28T00:51:41.970Z,9.08
2022-09-28T00:56:47.046Z,8.99
2022-09-28T01:01:49.293Z,8.94
2022-09-28T01:06:51.228Z,9.03
2022-09-28T01:11:52.932Z,8.96
2022-09-28T01:17:08.554Z,8.95
2022-09-28T01:22:43.340Z,8.92
2022-09-28T01:27:49.521Z,8.88
2022-09-28T01:32:54.716Z,8.77
2022-09-28T01:38:19.805Z,8.91
2022-09-28T01:43:25.806Z,8.76
2022-09-28T01:48:36.210Z,8.92
2022-09-28T01:53:43.296Z,8.83
2022-09-28T01:59:00.215Z,8.92
2022-09-28T02:04:14.670Z,8.84
2022-09-28T02:09:28.457Z,8.98
2022-09-28T02:14:34.754Z,8.97
2022-09-28T02:19:36.480Z,8.92
2022-09-28T02:24:41.047Z,8.91
2022-09-28T02:29:42.542Z,8.92
2022-09-28T02:34:44.030Z,8.98
2022-09-28T02:39:45.356Z,8.93
2022-09-28T02:45:10.072Z,8.96
2022-09-28T02:50:36.775Z,8.94
2022-09-28T02:55:43.613Z,8.91
2022-09-28T03:00:56.116Z,8.91
2022-09-28T03:06:03.252Z,8.90
2022-09-28T03:11:13.817Z,8.90
2022-09-28T03:16:17.708Z,8.85
2022-09-28T03:21:19.132Z,8.85
2022-09-28T03:26:20.502Z,8.84
2022-09-28T03:31:21.934Z,8.84
2022-09-28T03:36:23.483Z,8.83
2022-09-28T03:41:25.231Z,8.82
2022-09-28T03:46:27.300Z,8.76
2022-09-28T03:51:28.672Z,8.82
2022-09-28T03:56:30.167Z,8.83
2022-09-28T04:01:31.640Z,8.84
2022-09-28T04:06:33.068Z,8.74
2022-09-28T04:11:59.450Z,8.86
2022-09-28T04:16:56.227Z,8.84
2022-09-28T04:21:57.569Z,8.85
2022-09-28T04:27:18.879Z,8.74
2022-09-28T04:32:20.272Z,8.82
2022-09-28T04:37:21.618Z,8.84
2022-09-28T04:42:22.970Z,8.83
2022-09-28T04:47:25.053Z,8.86
2022-09-28T04:52:27.180Z,8.84
2022-09-28T04:57:28.508Z,8.83
2022-09-28T05:02:29.990Z,8.83
2022-09-28T05:07:31.357Z,8.85
2022-09-28T05:12:32.829Z,8.85
2022-09-28T05:17:34.422Z,8.88
2022-09-28T05:22:35.714Z,8.87
2022-09-28T05:27:37.025Z,8.91
2022-09-28T05:32:42.107Z,8.84
2022-09-28T05:37:43.775Z,8.82
2022-09-28T05:42:45.095Z,8.86
2022-09-28T05:47:46.412Z,8.78
2022-09-28T05:52:50.050Z,8.88
2022-09-28T05:57:51.390Z,8.86
2022-09-28T06:03:12.922Z,8.80
2022-09-28T06:08:14.279Z,8.92
2022-09-28T06:13:15.653Z,8.97
2022-09-28T06:18:16.994Z,8.88
2022-09-28T06:23:18.393Z,9.01
2022-09-28T06:28:19.743Z,8.78
2022-09-28T06:33:21.866Z,9.05
2022-09-28T06:38:23.187Z,9.04
2022-09-28T06:43:24.558Z,9.08
2022-09-28T06:48:26.136Z,9.03
2022-09-28T06:53:28.424Z,9.11
2022-09-28T06:58:30.901Z,9.13
2022-09-28T07:03:32.260Z,9.03
2022-09-28T07:08:33.600Z,9.16
2022-09-28T07:13:49.919Z,9.28
2022-09-28T07:18:51.981Z,9.18
2022-09-28T07:23:54.493Z,9.26
2022-09-28T07:28:56.040Z,9.34
2022-09-28T07:33:58.568Z,9.37
2022-09-28T07:38:59.890Z,9.40
2022-09-28T07:44:07.783Z,9.32
2022-09-28T07:49:12.226Z,9.51
2022-09-28T07:54:13.873Z,9.54
2022-09-28T07:59:18.208Z,9.55
2022-09-28T08:04:20.464Z,9.59
2022-09-28T08:09:21.789Z,9.56
2022-09-28T08:14:23.591Z,9.60
2022-09-28T08:19:24.936Z,9.59
2022-09-28T08:24:30.911Z,9.63
2022-09-28T08:29:32.331Z,9.74
2022-09-28T08:34:38.927Z,9.89
2022-09-28T08:39:40.425Z,9.74
2022-09-28T08:44:44.735Z,9.98
2022-09-28T08:49:49.923Z,10.05
2022-09-28T08:54:56.144Z,10.16
2022-09-28T09:00:00.556Z,10.26
2022-09-28T09:05:13.327Z,10.39
2022-09-28T09:10:42.542Z,10.38
2022-09-28T09:15:55.901Z,10.44
2022-09-28T09:20:59.577Z,10.59
2022-09-28T09:26:18.898Z,10.85
2022-09-28T09:31:33.138Z,11.04
2022-09-28T09:36:47.279Z,10.98
2022-09-28T09:42:08.877Z,11.11
2022-09-28T09:47:14.769Z,11.20
2022-09-28T09:52:26.192Z,11.32
2022-09-28T09:57:35.944Z,11.43
2022-09-28T10:02:39.398Z,11.62
2022-09-28T10:07:50.753Z,11.70
2022-09-28T10:12:52.900Z,11.69
2022-09-28T10:17:56.815Z,11.83
2022-09-28T10:23:01.952Z,11.82
2022-09-28T10:28:06.233Z,11.92
2022-09-28T10:33:28.785Z,11.98
2022-09-28T10:38:31.272Z,12.00
2022-09-28T10:43:38.668Z,11.99
2022-09-28T10:48:59.879Z,12.03
2022-09-28T10:54:02.591Z,12.11
2022-09-28T10:59:28.619Z,12.18
2022-09-28T11:04:39.924Z,12.17
2022-09-28T11:09:45.783Z,12.28
2022-09-28T11:14:55.576Z,12.29
2022-09-28T11:19:59.755Z,12.31
2022-09-28T11:25:16.084Z,12.29
2022-09-28T11:30:30.956Z,12.28
2022-09-28T11:36:03.832Z,12.27
2022-09-28T11:41:23.720Z,12.31
2022-09-28T11:46:34.568Z,12.38
2022-09-28T11:51:39.712Z,12.39
2022-09-28T11:56:48.557Z,12.48
2022-09-28T12:01:55.492Z,12.49
2022-09-28T12:07:03.696Z,12.55
2022-09-28T12:12:20.846Z,12.63
2022-09-28T12:17:28.531Z,12.87
2022-09-28T12:22:34.749Z,12.81
2022-09-28T12:27:51.400Z,12.95
2022-09-28T12:32:59.460Z,12.90
2022-09-28T12:38:12.821Z,13.00
2022-09-28T12:43:29.003Z,13.09
2022-09-28T12:49:15.874Z,13.11
2022-09-28T12:54:28.447Z,13.24
2022-09-28T12:59:39.562Z,13.19
2022-09-28T13:04:55.015Z,13.24
2022-09-28T13:10:33.082Z,13.27
2022-09-28T13:15:43.524Z,13.23
2022-09-28T13:21:05.508Z,13.38
2022-09-28T13:26:17.220Z,13.40
2022-09-28T13:31:30.895Z,13.44
2022-09-28T13:36:36.630Z,13.60
2022-09-28T13:41:40.367Z,13.58
2022-09-28T13:47:20.882Z,13.61
2022-09-28T13:52:44.370Z,13.53
2022-09-28T13:57:52.680Z,13.44
2022-09-28T14:03:04.028Z,13.42
2022-09-28T14:08:08.213Z,13.33
2022-09-28T14:13:10.355Z,13.23
2022-09-28T14:18:33.606Z,13.03
2022-09-28T14:23:47.638Z,13.00
2022-09-28T14:29:10.184Z,12.82
2022-09-28T14:34:32.736Z,12.82
2022-09-28T14:39:55.588Z,12.68
2022-09-28T14:45:06.301Z,12.61
2022-09-28T14:50:20.361Z,12.55
2022-09-28T14:55:31.031Z,12.48
2022-09-28T15:00:32.870Z,12.43
2022-09-28T15:05:48.170Z,12.04
2022-09-28T15:10:50.459Z,12.31
2022-09-28T15:15:59.329Z,12.25
2022-09-28T15:21:01.754Z,12.18
2022-09-28T15:26:07.613Z,12.09
2022-09-28T15:31:18.612Z,12.13
2022-09-28T15:36:26.484Z,12.09
2022-09-28T15:41:28.635Z,11.93
2022-09-28T15:46:30.083Z,11.89
2022-09-28T15:51:44.252Z,11.88
2022-09-28T15:57:02.336Z,11.91
2022-09-28T16:02:19.094Z,11.83
2022-09-28T16:07:35.279Z,11.89
2022-09-28T16:12:36.628Z,11.84
2022-09-28T16:17:38.357Z,11.78
2022-09-28T16:22:42.811Z,11.74
2022-09-28T16:27:45.649Z,11.74
2022-09-28T16:32:52.962Z,11.67
2022-09-28T16:38:11.693Z,11.60
2022-09-28T16:43:34.889Z,11.49
2022-09-28T16:48:40.417Z,11.49
2022-09-28T16:54:00.518Z,11.38
2022-09-28T16:59:02.306Z,11.35
2022-09-28T17:04:03.926Z,11.38
2022-09-28T17:09:07.005Z,11.24
2022-09-28T17:14:08.822Z,11.18
2022-09-28T17:19:19.302Z,11.10
2022-09-28T17:24:20.941Z,11.07
2022-09-28T17:29:23.567Z,10.90
2022-09-28T17:34:24.949Z,10.76
2022-09-28T17:39:26.392Z,10.71
2022-09-28T17:44:27.735Z,10.69
2022-09-28T17:49:29.283Z,10.56
2022-09-28T17:54:30.533Z,10.46
2022-09-28T17:59:31.847Z,10.45
2022-09-28T18:04:51.396Z,10.39
2022-09-28T18:09:56.574Z,10.26
2022-09-28T18:14:58.014Z,10.26
2022-09-28T18:19:59.339Z,10.16
2022-09-28T18:25:00.693Z,10.21
2022-09-28T18:30:02.286Z,10.20
2022-09-28T18:35:04.192Z,10.00
2022-09-28T18:40:06.382Z,10.01
2022-09-28T18:45:11.099Z,9.90
2022-09-28T18:50:15.232Z,9.92
2022-09-28T18:55:16.765Z,9.81
2022-09-28T19:00:18.056Z,9.77
2022-09-28T19:05:19.404Z,9.58
2022-09-28T19:10:20.809Z,9.60
2022-09-28T19:15:22.688Z,9.61
2022-09-28T19:20:23.992Z,9.42
2022-09-28T19:25:25.511Z,9.34
2022-09-28T19:30:26.792Z,9.26
2022-09-28T19:35:28.122Z,9.26
2022-09-28T19:40:29.485Z,9.21
2022-09-28T19:45:30.818Z,9.21
2022-09-28T19:50:32.841Z,9.13
2022-09-28T19:55:37.147Z,9.02
2022-09-28T20:00:38.550Z,9.02
2022-09-28T20:05:41.404Z,8.99
2022-09-28T20:10:54.518Z,9.00
2022-09-28T20:15:56.352Z,8.88
2022-09-28T20:21:05.886Z,8.77
2022-09-28T20:26:09.225Z,8.72
2022-09-28T20:31:18.878Z,8.64
2022-09-28T20:36:25.294Z,8.38
2022-09-28T20:41:27.357Z,8.58
2022-09-28T20:46:30.107Z,8.49
2022-09-28T20:51:32.274Z,8.52
2022-09-28T20:56:37.976Z,8.55
2022-09-28T21:01:39.993Z,8.50
2022-09-28T21:06:42.045Z,8.58
2022-09-28T21:11:43.393Z,8.46
2022-09-28T21:16:44.732Z,8.52
2022-09-28T21:21:46.684Z,8.47
2022-09-28T21:26:48.024Z,8.56
2022-09-28T21:31:49.375Z,8.63
2022-09-28T21:36:51.200Z,8.74
2022-09-28T21:41:52.714Z,8.63
2022-09-28T21:46:54.045Z,8.55
2022-09-28T21:51:55.488Z,8.58
2022-09-28T21:56:56.827Z,8.56
2022-09-28T22:01:58.211Z,8.49
2022-09-28T22:06:59.650Z,8.32
2022-09-28T22:12:01.234Z,8.34
2022-09-28T22:17:02.477Z,8.21
2022-09-28T22:22:03.821Z,8.11
2022-09-28T22:27:05.139Z,8.12
2022-09-28T22:32:07.449Z,8.06
2022-09-28T22:37:08.865Z,7.98
2022-09-28T22:42:10.210Z,8.06
2022-09-28T22:47:11.653Z,7.95
2022-09-28T22:52:13.012Z,7.95
2022-09-28T22:57:15.523Z,7.78
2022-09-28T23:02:16.893Z,7.74
2022-09-28T23:07:18.219Z,7.56
2022-09-28T23:12:19.528Z,7.56
2022-09-28T23:17:20.912Z,7.59
2022-09-28T23:22:22.325Z,7.55
2022-09-28T23:27:23.647Z,7.25
2022-09-28T23:32:27.524Z,7.48
2022-09-28T23:37:32.527Z,7.51
2022-09-28T23:42:34.843Z,7.47
2022-09-28T23:47:37.299Z,7.39
2022-09-28T23:52:38.677Z,7.34
2022-09-28T23:57:42.559Z,7.29
